• Join FlightAware (Why Join?)
  • Login
  • US Flag 
 
02:15AM EST


 

Airport Tracker/Info


-or-


 

Live Flight TrackerFlight Track Log ✈ PDT4314 ✈ 20-Feb-2014 ✈ KPHL - KBGM

Flight Track Log - Related Links

Times and Time Zones

All times are in EST time to prevent confusion due to time zone crossing. See the PDT4314 flight status page for this flight to view local times or setup timezone preferences in your user account.

Time Position Orientation Groundspeed Altitude Reporting Facility
EST Latitude Longitude Course Direction KTS MPH feet Rate Location/Type
05:34PM 39.9000 -75.2333 303° West 133 153 600  Level Philadelphia TRACON
05:35PM 39.9167 -75.2667 303° West 148 170 1,600 1,440 Climbing Philadelphia TRACON
05:36PM 39.9167 -75.3167 270° West 141 162 3,100 1,680 Climbing Philadelphia TRACON
05:37PM 39.9333 -75.3667 294° West 146 168 4,800 1,500 Climbing Philadelphia TRACON
05:37PM 39.9458 -75.3903 305° West 147 169 5,500 1,200 Climbing New York Center
05:38PM 39.9483 -75.4364 274° West 140 161 6,800 1,260 Climbing New York Center
05:39PM 39.9586 -75.4911 284° West 145 167 8,100 1,080 Climbing New York Center
05:40PM 40.0061 -75.5025 350° North 178 205 9,000 1,080 Climbing New York Center
05:41PM 40.0700 -75.5206 348° North 200 230 10,300 1,140 Climbing New York Center
05:42PM 40.1131 -75.5369 344° North 195 224 11,300 960 Climbing New York Center
05:43PM 40.1689 -75.5517 349° North 184 212 12,300 900 Climbing New York Center
05:44PM 40.2292 -75.5531 359° North 195 224 13,200 840 Climbing New York Center
05:45PM 40.2525 -75.5928 308° West 163 188 14,000 360 Climbing New York Center
05:46PM 40.2817 -75.6467 305° West 168 193 14,000  Level New York Center
05:47PM 40.3406 -75.6806 336° Northwest 198 228 14,000  Level New York Center
05:48PM 40.3997 -75.7122 340° North 219 252 14,000  Level New York Center
05:49PM 40.3959 -75.7068 340° North  Level FlightAware Approximate
05:49PM 40.4567 -75.7489 334° Northwest 229 264 14,000  Level New York Center
05:50PM 40.5075 -75.7772 337° Northwest 229 264 14,000  Level New York Center
05:51PM 40.5603 -75.8111 334° Northwest 229 264 14,000  Level New York Center
05:52PM 40.6236 -75.8431 339° North 223 257 14,000  Level New York Center
05:53PM 40.6783 -75.8744 336° Northwest 217 250 14,000  Level New York Center
05:54PM 40.7267 -75.9136 328° Northwest 211 243 14,000 -60 Level New York Center
05:55PM 40.7814 -75.9506 333° Northwest 216 249 13,900 -60 Descending New York Center
05:56PM 40.8322 -75.9764 339° North 216 249 13,900  Level New York Center
05:57PM 40.8911 -76.0139 334° Northwest 211 243 13,900  Level New York Center
05:59PM 41.0056 -76.0639 337° Northwest 216 249 14,000  Climbing New York Center
06:00PM 41.0542 -76.0953 334° Northwest 204 235 14,000  Level New York Center
06:01PM 41.1047 -76.1294 333° Northwest 199 229 14,000  Level New York Center
06:02PM 41.1536 -76.1556 338° Northwest 199 229 14,000  Level New York Center
06:03PM 41.2019 -76.1897 332° Northwest 199 229 14,000  Level New York Center
06:04PM 41.2633 -76.2111 345° North 199 229 14,000  Level New York Center
06:05PM 41.3286 -76.1997 North 217 250 14,000  Level New York Center
06:06PM 41.3911 -76.1994 360° North 229 264 14,000  Level New York Center
06:07PM 41.4517 -76.1933 North 234 269 14,000  Level New York Center
06:08PM 41.5169 -76.1819 North 234 269 14,000 -360 Level New York Center
06:09PM 41.5919 -76.1794 North 234 269 13,300 -900 Descending New York Center
06:10PM 41.6692 -76.1747 North 255 293 12,300 -1,080 Descending New York Center
06:11PM 41.7464 -76.1725 North 274 315 11,200 -1,260 Descending New York Center
06:12PM 41.8181 -76.1533 11° North 279 321 9,800 -1,380 Descending New York Center
06:13PM 41.8981 -76.1347 10° North 285 328 8,500 -1,200 Descending New York Center
06:14PM 41.9839 -76.1222 North 285 328 7,400 -1,020 Descending New York Center
06:15PM 42.0633 -76.1147 North 285 328 6,500 -1,080 Descending New York Center
06:16PM 42.1406 -76.1125 North 279 321 5,300 -1,380 Descending New York Center
06:17PM 42.2147 -76.1269 352° North 273 314 3,800 -1,080 Descending New York Center
06:18PM 42.2469 -76.0567 58° Northeast 189 217 3,200 -600 Descending New York Center
06:19PM 42.2472 -76.0064 90° East 148 170 2,700 -600 Descending New York Center
06:20PM 42.2419 -75.9836 107° East 92 106 2,100 -600 Descending New York Center